# Tabular Observed and Forecast Hydrograph Information
#
# Location: Temescal Creek - Corona at Main Street (TSLC1)
#
# File Generation Time: 05/07/2026 at 07:39 AM PDT
# Data Interval: 1 Hour
#
# Most Recent Date & Time of Maximum Observed: 05/05/2026 at 07:00 AM PDT
# Maximum Observed Stage: 3.14 Feet
# Maximum Observed Flow: 80 cfs
#
# Earliest Date & Time of Maximum Forecast: 05/07/2026 at 09:00 AM PDT
# Maximum Forecast Stage: 2.37 Feet
# Maximum Forecast Flow: 2 cfs
#
# OBSERVED
#
# Date & Time (Local) Stage (Feet) Flow (cfs) Trend Observed Status
# ---------------------------------------------------------------------------------
05/02/2026 07 AM PDT 2.40 3 Not Applicable
05/02/2026 08 AM PDT 2.40 3 0 Not Applicable
05/02/2026 09 AM PDT 2.38 3 - Not Applicable
05/02/2026 10 AM PDT 2.38 3 0 Not Applicable
05/02/2026 11 AM PDT 2.38 3 0 Not Applicable
05/02/2026 12 PM PDT 2.40 3 + Not Applicable
05/02/2026 01 PM PDT 2.42 4 + Not Applicable
05/02/2026 02 PM PDT 2.39 3 - Not Applicable
05/02/2026 03 PM PDT 2.38 3 - Not Applicable
05/02/2026 04 PM PDT 2.36 2 - Not Applicable
05/02/2026 05 PM PDT 2.36 2 0 Not Applicable
05/02/2026 06 PM PDT 2.34 2 - Not Applicable
05/02/2026 07 PM PDT 2.37 2 + Not Applicable
05/02/2026 08 PM PDT 2.36 2 - Not Applicable
05/02/2026 09 PM PDT 2.32 1 - Not Applicable
05/02/2026 10 PM PDT 2.34 2 + Not Applicable
05/02/2026 11 PM PDT 2.32 1 - Not Applicable
05/03/2026 12 AM PDT 2.33 1 + Not Applicable
05/03/2026 01 AM PDT 2.34 2 + Not Applicable
05/03/2026 02 AM PDT 2.34 2 0 Not Applicable
05/03/2026 03 AM PDT 2.37 2 + Not Applicable
05/03/2026 04 AM PDT 2.35 2 - Not Applicable
05/03/2026 05 AM PDT 2.36 2 + Not Applicable
05/03/2026 06 AM PDT 2.36 2 0 Not Applicable
05/03/2026 07 AM PDT 2.38 3 + Not Applicable
05/03/2026 08 AM PDT 2.38 3 0 Not Applicable
05/03/2026 09 AM PDT 2.37 2 - Not Applicable
05/03/2026 10 AM PDT 2.38 3 + Not Applicable
05/03/2026 11 AM PDT 2.38 3 0 Not Applicable
05/03/2026 12 PM PDT 2.39 3 + Not Applicable
05/03/2026 01 PM PDT 2.39 3 0 Not Applicable
05/03/2026 02 PM PDT 2.40 3 + Not Applicable
05/03/2026 03 PM PDT 2.39 3 - Not Applicable
05/03/2026 04 PM PDT 2.38 3 - Not Applicable
05/03/2026 05 PM PDT 2.38 3 0 Not Applicable
05/03/2026 06 PM PDT 2.37 2 - Not Applicable
05/03/2026 07 PM PDT 2.36 2 - Not Applicable
05/03/2026 08 PM PDT 2.36 2 0 Not Applicable
05/03/2026 09 PM PDT 2.35 2 - Not Applicable
05/03/2026 10 PM PDT 2.34 2 - Not Applicable
05/03/2026 11 PM PDT 2.34 2 0 Not Applicable
05/04/2026 12 AM PDT 2.35 2 + Not Applicable
05/04/2026 01 AM PDT 2.36 2 + Not Applicable
05/04/2026 02 AM PDT 2.37 2 + Not Applicable
05/04/2026 03 AM PDT 2.38 3 + Not Applicable
05/04/2026 04 AM PDT 2.38 3 0 Not Applicable
05/04/2026 05 AM PDT 2.38 3 0 Not Applicable
05/04/2026 06 AM PDT 2.38 3 0 Not Applicable
05/04/2026 07 AM PDT 2.39 3 + Not Applicable
05/04/2026 08 AM PDT 2.40 3 + Not Applicable
05/04/2026 09 AM PDT 2.43 5 + Not Applicable
05/04/2026 10 AM PDT 2.44 5 + Not Applicable
05/04/2026 11 AM PDT 2.42 4 - Not Applicable
05/04/2026 12 PM PDT 2.51 9 + Not Applicable
05/04/2026 01 PM PDT 2.41 4 - Not Applicable
05/04/2026 02 PM PDT 2.38 3 - Not Applicable
05/04/2026 03 PM PDT 2.36 2 - Not Applicable
05/04/2026 04 PM PDT 2.34 2 - Not Applicable
05/04/2026 05 PM PDT 2.33 1 - Not Applicable
05/04/2026 06 PM PDT 2.32 1 - Not Applicable
05/04/2026 07 PM PDT 2.35 2 + Not Applicable
05/04/2026 08 PM PDT 2.43 5 + Not Applicable
05/04/2026 09 PM PDT 2.40 3 - Not Applicable
05/04/2026 10 PM PDT 2.37 2 - Not Applicable
05/04/2026 11 PM PDT 2.39 3 + Not Applicable
05/05/2026 12 AM PDT 2.39 3 0 Not Applicable
05/05/2026 01 AM PDT 2.39 3 0 Not Applicable
05/05/2026 02 AM PDT 2.40 3 + Not Applicable
05/05/2026 03 AM PDT 2.40 3 0 Not Applicable
05/05/2026 04 AM PDT 2.41 4 + Not Applicable
05/05/2026 05 AM PDT 2.44 5 + Not Applicable
05/05/2026 06 AM PDT 2.58 13 + Not Applicable
05/05/2026 07 AM PDT 3.14 80 + Not Applicable
05/05/2026 08 AM PDT 2.94 49 - Not Applicable
05/05/2026 09 AM PDT 2.72 24 - Not Applicable
05/05/2026 10 AM PDT 2.57 12 - Not Applicable
05/05/2026 11 AM PDT 2.50 8 - Not Applicable
05/05/2026 12 PM PDT 2.43 5 - Not Applicable
05/05/2026 01 PM PDT 2.38 3 - Not Applicable
05/05/2026 02 PM PDT 2.39 3 + Not Applicable
05/05/2026 03 PM PDT 2.34 2 - Not Applicable
05/05/2026 04 PM PDT 2.32 1 - Not Applicable
05/05/2026 05 PM PDT 2.33 1 + Not Applicable
05/05/2026 06 PM PDT 2.29 1 - Not Applicable
05/05/2026 07 PM PDT 2.29 1 0 Not Applicable
05/05/2026 08 PM PDT 2.29 1 0 Not Applicable
05/05/2026 09 PM PDT 2.30 1 + Not Applicable
05/05/2026 10 PM PDT 2.27 1 - Not Applicable
05/05/2026 11 PM PDT 2.29 1 + Not Applicable
05/06/2026 12 AM PDT 2.36 2 + Not Applicable
05/06/2026 01 AM PDT 2.29 1 - Not Applicable
05/06/2026 02 AM PDT 2.30 1 + Not Applicable
05/06/2026 03 AM PDT 2.31 1 + Not Applicable
05/06/2026 04 AM PDT 2.31 1 0 Not Applicable
05/06/2026 05 AM PDT 2.31 1 0 Not Applicable
05/06/2026 06 AM PDT 2.31 1 0 Not Applicable
05/06/2026 07 AM PDT 2.32 1 + Not Applicable
05/06/2026 08 AM PDT 2.33 1 + Not Applicable
05/06/2026 09 AM PDT 2.33 1 0 Not Applicable
05/06/2026 10 AM PDT 2.32 1 - Not Applicable
05/06/2026 11 AM PDT 2.34 2 + Not Applicable
05/06/2026 12 PM PDT 2.32 1 - Not Applicable
05/06/2026 01 PM PDT 2.31 1 - Not Applicable
05/06/2026 02 PM PDT 2.31 1 0 Not Applicable
05/06/2026 03 PM PDT 2.30 1 - Not Applicable
05/06/2026 04 PM PDT 2.29 1 - Not Applicable
05/06/2026 05 PM PDT 2.29 1 0 Not Applicable
05/06/2026 06 PM PDT 2.31 1 + Not Applicable
05/06/2026 07 PM PDT 2.28 1 - Not Applicable
05/06/2026 08 PM PDT 2.27 1 - Not Applicable
05/06/2026 09 PM PDT 2.27 1 0 Not Applicable
05/06/2026 10 PM PDT 2.29 1 + Not Applicable
05/06/2026 11 PM PDT 2.30 1 + Not Applicable
05/07/2026 12 AM PDT 2.30 1 0 Not Applicable
05/07/2026 01 AM PDT 2.33 1 + Not Applicable
05/07/2026 02 AM PDT 2.30 1 - Not Applicable
05/07/2026 03 AM PDT 2.32 1 + Not Applicable
05/07/2026 04 AM PDT 2.33 1 + Not Applicable
05/07/2026 05 AM PDT 2.32 1 - Not Applicable
05/07/2026 06 AM PDT 2.33 1 + Not Applicable
05/07/2026 07 AM PDT 2.34 2 + Not Applicable
#
# FORECAST
#
# Date & Time (Local) Stage (Feet) Flow (cfs) Trend Forecast Status
# ---------------------------------------------------------------------------------
05/07/2026 08 AM PDT 2.35 2 Not Applicable
05/07/2026 09 AM PDT 2.37 2 + Not Applicable
05/07/2026 10 AM PDT 2.37 2 0 Not Applicable
05/07/2026 11 AM PDT 2.37 2 0 Not Applicable
05/07/2026 12 PM PDT 2.37 2 0 Not Applicable
05/07/2026 01 PM PDT 2.37 2 0 Not Applicable
05/07/2026 02 PM PDT 2.37 2 0 Not Applicable
05/07/2026 03 PM PDT 2.37 2 0 Not Applicable
05/07/2026 04 PM PDT 2.37 2 0 Not Applicable
05/07/2026 05 PM PDT 2.37 2 0 Not Applicable
05/07/2026 06 PM PDT 2.37 2 0 Not Applicable
05/07/2026 07 PM PDT 2.37 2 0 Not Applicable
05/07/2026 08 PM PDT 2.37 2 0 Not Applicable
05/07/2026 09 PM PDT 2.37 2 0 Not Applicable
05/07/2026 10 PM PDT 2.37 2 0 Not Applicable
05/07/2026 11 PM PDT 2.37 2 0 Not Applicable
05/08/2026 12 AM PDT 2.37 2 0 Not Applicable
05/08/2026 01 AM PDT 2.37 2 0 Not Applicable
05/08/2026 02 AM PDT 2.37 2 0 Not Applicable
05/08/2026 03 AM PDT 2.37 2 0 Not Applicable
05/08/2026 04 AM PDT 2.36 2 - Not Applicable
05/08/2026 05 AM PDT 2.36 2 0 Not Applicable
05/08/2026 06 AM PDT 2.36 2 0 Not Applicable
05/08/2026 07 AM PDT 2.36 2 0 Not Applicable
05/08/2026 08 AM PDT 2.36 2 0 Not Applicable
05/08/2026 09 AM PDT 2.36 2 0 Not Applicable
05/08/2026 10 AM PDT 2.36 2 0 Not Applicable
05/08/2026 11 AM PDT 2.36 2 0 Not Applicable
05/08/2026 12 PM PDT 2.36 2 0 Not Applicable
05/08/2026 01 PM PDT 2.36 2 0 Not Applicable
05/08/2026 02 PM PDT 2.36 2 0 Not Applicable
05/08/2026 03 PM PDT 2.36 2 0 Not Applicable
05/08/2026 04 PM PDT 2.36 2 0 Not Applicable
05/08/2026 05 PM PDT 2.36 2 0 Not Applicable
05/08/2026 06 PM PDT 2.36 2 0 Not Applicable
05/08/2026 07 PM PDT 2.36 2 0 Not Applicable
05/08/2026 08 PM PDT 2.36 2 0 Not Applicable
05/08/2026 09 PM PDT 2.36 2 0 Not Applicable
05/08/2026 10 PM PDT 2.36 2 0 Not Applicable
05/08/2026 11 PM PDT 2.36 2 0 Not Applicable
05/09/2026 12 AM PDT 2.36 2 0 Not Applicable
05/09/2026 01 AM PDT 2.36 2 0 Not Applicable
05/09/2026 02 AM PDT 2.36 2 0 Not Applicable
05/09/2026 03 AM PDT 2.36 2 0 Not Applicable
05/09/2026 04 AM PDT 2.36 2 0 Not Applicable
05/09/2026 05 AM PDT 2.36 2 0 Not Applicable
05/09/2026 06 AM PDT 2.36 2 0 Not Applicable
05/09/2026 07 AM PDT 2.36 2 0 Not Applicable
05/09/2026 08 AM PDT 2.36 2 0 Not Applicable
05/09/2026 09 AM PDT 2.36 2 0 Not Applicable
05/09/2026 10 AM PDT 2.36 2 0 Not Applicable
05/09/2026 11 AM PDT 2.36 2 0 Not Applicable
05/09/2026 12 PM PDT 2.36 2 0 Not Applicable
05/09/2026 01 PM PDT 2.36 2 0 Not Applicable
05/09/2026 02 PM PDT 2.36 2 0 Not Applicable
05/09/2026 03 PM PDT 2.36 2 0 Not Applicable
05/09/2026 04 PM PDT 2.36 2 0 Not Applicable
05/09/2026 05 PM PDT 2.36 2 0 Not Applicable
05/09/2026 06 PM PDT 2.36 2 0 Not Applicable
05/09/2026 07 PM PDT 2.36 2 0 Not Applicable
05/09/2026 08 PM PDT 2.36 2 0 Not Applicable
05/09/2026 09 PM PDT 2.36 2 0 Not Applicable
05/09/2026 10 PM PDT 2.36 2 0 Not Applicable
05/09/2026 11 PM PDT 2.36 2 0 Not Applicable
05/10/2026 12 AM PDT 2.36 2 0 Not Applicable
05/10/2026 01 AM PDT 2.36 2 0 Not Applicable
05/10/2026 02 AM PDT 2.36 2 0 Not Applicable
05/10/2026 03 AM PDT 2.36 2 0 Not Applicable
05/10/2026 04 AM PDT 2.36 2 0 Not Applicable
05/10/2026 05 AM PDT 2.36 2 0 Not Applicable
05/10/2026 06 AM PDT 2.36 2 0 Not Applicable
05/10/2026 07 AM PDT 2.36 2 0 Not Applicable
05/10/2026 08 AM PDT 2.36 2 0 Not Applicable
05/10/2026 09 AM PDT 2.36 2 0 Not Applicable
05/10/2026 10 AM PDT 2.36 2 0 Not Applicable
05/10/2026 11 AM PDT 2.36 2 0 Not Applicable
05/10/2026 12 PM PDT 2.36 2 0 Not Applicable
05/10/2026 01 PM PDT 2.36 2 0 Not Applicable
05/10/2026 02 PM PDT 2.36 2 0 Not Applicable
05/10/2026 03 PM PDT 2.36 2 0 Not Applicable
05/10/2026 04 PM PDT 2.36 2 0 Not Applicable
05/10/2026 05 PM PDT 2.36 2 0 Not Applicable
05/10/2026 06 PM PDT 2.36 2 0 Not Applicable
05/10/2026 07 PM PDT 2.36 2 0 Not Applicable
05/10/2026 08 PM PDT 2.36 2 0 Not Applicable
05/10/2026 09 PM PDT 2.36 2 0 Not Applicable
05/10/2026 10 PM PDT 2.36 2 0 Not Applicable
05/10/2026 11 PM PDT 2.36 2 0 Not Applicable
05/11/2026 12 AM PDT 2.36 2 0 Not Applicable
05/11/2026 01 AM PDT 2.36 2 0 Not Applicable
05/11/2026 02 AM PDT 2.36 2 0 Not Applicable
05/11/2026 03 AM PDT 2.36 2 0 Not Applicable
05/11/2026 04 AM PDT 2.36 2 0 Not Applicable
05/11/2026 05 AM PDT 2.36 2 0 Not Applicable
05/11/2026 06 AM PDT 2.36 2 0 Not Applicable
05/11/2026 07 AM PDT 2.36 2 0 Not Applicable
05/11/2026 08 AM PDT 2.36 2 0 Not Applicable
05/11/2026 09 AM PDT 2.36 2 0 Not Applicable
05/11/2026 10 AM PDT 2.36 2 0 Not Applicable
05/11/2026 11 AM PDT 2.36 2 0 Not Applicable
05/11/2026 12 PM PDT 2.36 2 0 Not Applicable
05/11/2026 01 PM PDT 2.36 2 0 Not Applicable
05/11/2026 02 PM PDT 2.36 2 0 Not Applicable
05/11/2026 03 PM PDT 2.36 2 0 Not Applicable
05/11/2026 04 PM PDT 2.36 2 0 Not Applicable
05/11/2026 05 PM PDT 2.36 2 0 Not Applicable
05/11/2026 06 PM PDT 2.36 2 0 Not Applicable
05/11/2026 07 PM PDT 2.36 2 0 Not Applicable
05/11/2026 08 PM PDT 2.36 2 0 Not Applicable
05/11/2026 09 PM PDT 2.36 2 0 Not Applicable
05/11/2026 10 PM PDT 2.36 2 0 Not Applicable
05/11/2026 11 PM PDT 2.36 2 0 Not Applicable
05/12/2026 12 AM PDT 2.36 2 0 Not Applicable
05/12/2026 01 AM PDT 2.36 2 0 Not Applicable
05/12/2026 02 AM PDT 2.36 2 0 Not Applicable
05/12/2026 03 AM PDT 2.36 2 0 Not Applicable
05/12/2026 04 AM PDT 2.36 2 0 Not Applicable
05/12/2026 05 AM PDT 2.36 2 0 Not Applicable
#
# NOTE 1: Stages are rounded to the nearest hundredth (.01) of a foot.
# NOTE 2: Flows are rounded to the nearest (1) cfs.
# NOTE 3: Trends are determined using hourly change in unrounded stage and flow.
# NOTE 4: Maximum Values are determined using unrounded stage and flow.
|